Wainwright, AK

11:04 PM AKST on February 26, 2015 (GMT -0900)
Atqasuk Edward Burnell Sr Mem | Change Station
CLOSE
Current Station
Airport
Location: Atqasuk Edward Burnell Sr Mem,
Elevation: 95 ft
Nearby Weather Stations
Active Advisory: Winter Weather Advisory

Elev 95 ft 70.47 °N, 157.44 °W | Updated 8 minutes ago

Light Snow
Light Snow Mist
30 °F
Feels Like 17 °F
N
21
Wind Variable Wind from SSW

Today
High -- | Low -- °F
--% Chance of Precip.
Yesterday
High -- | Low -- °F
Precip. -- in
9:24 AM 6:23 PM
Waxing Gibbous, 66% visible
Pressure 29.82 in
Visibility 2.0 miles
Clouds Mostly Cloudy 1900 ft
Mostly Cloudy 2400 ft
Overcast 3000 ft
Windchill 17 °F
Dew Point 30 °F
Humidity 100%
Rainfall 0.00 in
Snow Depth Not available.
UV 0 out of 12
Pollen Not available.
Air Quality Not available.
Flu Activity Not available.
METAR PATQ 270756Z AUTO 21018KT 2SM -SN BR BKN019 BKN024 OVC030 M01/M01 A2980 RMK AO2 TSNO T10111011 P0000 SLP098 $

More Conditions Fewer Conditions

Pressure 29.82 in
Visibility 2.0 miles
Clouds Mostly Cloudy 1900 ft
Mostly Cloudy 2400 ft
Overcast 3000 ft
Windchill 17 °F
Dew Point 30 °F
Humidity 100%
Rainfall 0.00 in
Snow Depth Not available.
UV 0 out of 12
Pollen Not available.
Air Quality Not available.
Flu Activity Not available.
METAR PATQ 270756Z AUTO 21018KT 2SM -SN BR BKN019 BKN024 OVC030 M01/M01 A2980 RMK AO2 TSNO T10111011 P0000 SLP098 $

More Conditions Fewer Conditions

10-Day Weather Forecast

Almanac

Astronomy

Feb. 26, 2015 Rise Set
Actual Time
Civil Twilight
Nautical Twilight
Astronomical Twilight
Moon
Length of Visible Light
Length of Day
Tomorrow will be .
, % of the Moon is Illuminated

Today's Extremes

State Highs State Lows

Community

WunderPhotos

Upload Photos

1,800,649 photos uploaded!

WunderBlogs® & News

Nearby

Air Quality

  Air Quality AQ Index Pollutant
Not available.

Snow Depth

Station Depth Elevation

Earthquake Activity

City Distance Mag. Time & Date
Minimum magnitude displayed is 2.5.

Coastal Water Temperatures

Place Temperature

Nearby Weather Stations

Winter Weather Advisory
Statement as of 6:30 PM AKST on February 26, 2015

... Winter Weather Advisory in effect until 6 am akst Friday...

A Winter Weather Advisory for snow... blowing snow remains in
effect until 6 am akst Friday.

* Snow... with accumulation up to 2 inches.

* Blowing snow... reducing visibility to one half mile or less at
times.

* Timing... snow and blowing snow with low visibility is now
occuring from Point Lay west. These conditions will spread
east to Wainwright by this evening. Conditions will improve
Friday morning as winds and snow diminish.

* Impacts... visibility will be greatly reduced and snow will
accumulate into drifts. Whiteout conditions may occur. Travel
and outdoor activities will be difficult.

Precautionary/preparedness actions...

A Winter Weather Advisory means that one or more winter weather
hazards are expected to cause travel difficulties.